createdAt,value
2022-12-01T00:01:20.101Z,84.65
2022-12-01T00:03:47.248Z,84.87
2022-12-01T00:06:17.820Z,84.19
2022-12-01T00:09:06.692Z,83.94
2022-12-01T00:11:35.567Z,84.30
2022-12-01T00:14:02.995Z,84.70
2022-12-01T00:16:30.355Z,84.49
2022-12-01T00:18:58.155Z,85.40
2022-12-01T00:21:26.970Z,85.41
2022-12-01T00:23:56.860Z,84.59
2022-12-01T00:26:25.250Z,84.62
2022-12-01T00:28:55.616Z,84.89
2022-12-01T00:31:22.953Z,84.70
2022-12-01T00:33:49.860Z,84.88
2022-12-01T00:36:16.904Z,84.58
2022-12-01T00:38:43.773Z,85.19
2022-12-01T00:41:10.646Z,84.73
2022-12-01T00:43:37.472Z,85.41
2022-12-01T00:46:04.490Z,84.73
2022-12-01T00:48:31.411Z,84.45
2022-12-01T00:50:58.293Z,84.30
2022-12-01T00:53:25.141Z,83.83
2022-12-01T00:55:53.970Z,83.82
2022-12-01T00:58:21.876Z,84.10
2022-12-01T01:00:49.130Z,84.57
2022-12-01T01:03:15.979Z,84.02
2022-12-01T01:05:43.893Z,83.61
2022-12-01T01:08:13.168Z,83.82
2022-12-01T01:10:46.143Z,84.71
2022-12-01T01:13:14.339Z,84.65
2022-12-01T01:15:41.672Z,84.03
2022-12-01T01:18:09.775Z,84.37
2022-12-01T01:20:36.697Z,84.54
2022-12-01T01:23:03.669Z,84.63
2022-12-01T01:25:32.694Z,84.64
2022-12-01T01:27:59.527Z,85.05
2022-12-01T01:30:26.359Z,85.20
2022-12-01T01:32:53.262Z,85.01
2022-12-01T01:35:20.136Z,84.55
2022-12-01T01:37:46.965Z,84.44
2022-12-01T01:40:13.817Z,85.39
2022-12-01T01:42:40.649Z,84.99
2022-12-01T01:45:21.307Z,85.27
2022-12-01T01:47:50.319Z,85.20
2022-12-01T01:50:21.842Z,85.53
2022-12-01T01:52:57.330Z,85.01
2022-12-01T01:55:25.007Z,85.44
2022-12-01T01:57:51.920Z,85.08
2022-12-01T02:00:20.992Z,86.30
2022-12-01T02:02:49.177Z,86.21
2022-12-01T02:05:30.995Z,86.13
2022-12-01T02:07:59.620Z,86.07
2022-12-01T02:11:12.706Z,86.74
2022-12-01T02:14:14.588Z,86.37
2022-12-01T02:17:09.532Z,86.66
2022-12-01T02:19:48.508Z,87.10
2022-12-01T02:23:01.869Z,88.27
2022-12-01T02:26:22.190Z,88.17
2022-12-01T02:29:25.238Z,89.06
2022-12-01T02:32:32.694Z,88.87
2022-12-01T02:35:25.111Z,91.97
2022-12-01T02:38:15.044Z,91.44
2022-12-01T02:41:01.712Z,90.32
2022-12-01T02:43:51.068Z,90.12
2022-12-01T02:46:34.407Z,90.89
2022-12-01T02:49:10.404Z,90.59
2022-12-01T02:51:40.224Z,90.29
2022-12-01T02:54:08.531Z,91.05
2022-12-01T02:56:35.388Z,90.19
2022-12-01T02:59:02.245Z,89.59
2022-12-01T03:01:59.853Z,90.30
2022-12-01T03:05:00.637Z,91.50
2022-12-01T03:07:54.666Z,92.41
2022-12-01T03:10:45.795Z,92.53
2022-12-01T03:13:27.480Z,93.64
2022-12-01T03:16:16.603Z,93.64
2022-12-01T03:19:14.831Z,92.83
2022-12-01T03:21:52.266Z,93.13
2022-12-01T03:24:22.871Z,92.30
2022-12-01T03:26:56.985Z,93.57
2022-12-01T03:29:50.051Z,93.98
2022-12-01T03:32:33.823Z,93.27
2022-12-01T03:35:08.956Z,93.66
2022-12-01T03:38:40.269Z,93.26
2022-12-01T03:41:16.855Z,91.64
2022-12-01T03:43:51.905Z,93.56
2022-12-01T03:46:53.026Z,93.67
2022-12-01T03:49:21.703Z,93.37
2022-12-01T03:52:35.950Z,94.46
2022-12-01T03:55:21.169Z,93.38
2022-12-01T03:58:13.905Z,94.32
2022-12-01T04:00:41.866Z,95.56
2022-12-01T04:03:16.936Z,95.91
2022-12-01T04:05:43.934Z,95.05
2022-12-01T04:08:10.911Z,94.50
2022-12-01T04:10:37.886Z,93.94
2022-12-01T04:13:04.820Z,93.35
2022-12-01T04:15:31.696Z,93.00
2022-12-01T04:17:58.573Z,93.72
2022-12-01T04:20:25.447Z,92.27
2022-12-01T04:22:52.272Z,93.35
2022-12-01T04:25:19.152Z,93.30
2022-12-01T04:27:46.071Z,92.98
2022-12-01T04:30:13.382Z,93.00
2022-12-01T04:32:42.711Z,92.12
2022-12-01T04:35:12.322Z,92.83
2022-12-01T04:37:39.923Z,92.73
2022-12-01T04:40:08.079Z,93.30
2022-12-01T04:42:35.065Z,93.38
2022-12-01T04:45:02.075Z,91.20
2022-12-01T04:47:29.081Z,89.10
2022-12-01T04:49:55.992Z,87.59
2022-12-01T04:52:22.847Z,86.06
2022-12-01T04:54:49.707Z,89.50
2022-12-01T04:57:16.600Z,88.72
2022-12-01T04:59:43.525Z,85.13
2022-12-01T05:02:10.526Z,79.81
2022-12-01T05:04:41.243Z,78.38
2022-12-01T05:07:08.526Z,77.67
2022-12-01T05:09:35.601Z,79.12
2022-12-01T05:12:02.406Z,77.38
2022-12-01T05:14:29.316Z,79.44
2022-12-01T05:16:58.055Z,77.47
2022-12-01T05:19:43.557Z,77.29
2022-12-01T05:22:10.413Z,78.44
2022-12-01T05:24:37.294Z,78.13
2022-12-01T05:27:04.299Z,78.29
2022-12-01T05:29:32.975Z,78.28
2022-12-01T05:32:00.201Z,77.10
2022-12-01T05:34:27.212Z,76.56
2022-12-01T05:36:54.135Z,78.20
2022-12-01T05:39:21.011Z,78.25
2022-12-01T05:41:47.821Z,76.67
2022-12-01T05:44:14.670Z,76.60
2022-12-01T05:46:41.568Z,77.09
2022-12-01T05:49:08.452Z,76.43
2022-12-01T05:51:35.462Z,76.96
2022-12-01T05:54:02.416Z,76.92
2022-12-01T05:56:29.218Z,77.14
2022-12-01T05:58:56.139Z,76.25
2022-12-01T06:01:23.273Z,75.61
2022-12-01T06:03:50.194Z,76.89
2022-12-01T06:06:17.537Z,77.94
2022-12-01T06:08:44.435Z,77.74
2022-12-01T06:11:11.581Z,79.21
2022-12-01T06:13:38.766Z,78.57
2022-12-01T06:16:07.264Z,76.84
2022-12-01T06:18:37.425Z,77.21
2022-12-01T06:21:06.422Z,76.83
2022-12-01T06:23:33.969Z,76.54
2022-12-01T06:26:00.928Z,76.17
2022-12-01T06:28:27.887Z,77.06
2022-12-01T06:31:01.010Z,76.96
2022-12-01T06:33:30.192Z,77.60
2022-12-01T06:36:03.033Z,76.47
2022-12-01T06:38:37.209Z,76.62
2022-12-01T06:41:05.410Z,76.09
2022-12-01T06:43:32.667Z,75.64
2022-12-01T06:46:02.098Z,76.09
2022-12-01T06:48:30.568Z,75.97
2022-12-01T06:50:59.250Z,75.15
2022-12-01T06:53:28.270Z,75.59
2022-12-01T06:56:03.591Z,76.58
2022-12-01T06:58:31.189Z,76.43
2022-12-01T07:00:59.024Z,75.57
2022-12-01T07:03:26.146Z,75.48
2022-12-01T07:06:00.890Z,76.00
2022-12-01T07:08:29.869Z,76.05
2022-12-01T07:11:04.957Z,75.22
2022-12-01T07:13:33.882Z,75.96
2022-12-01T07:16:05.822Z,75.30
2022-12-01T07:18:33.311Z,75.04
2022-12-01T07:21:10.341Z,75.92
2022-12-01T07:23:37.206Z,75.92
2022-12-01T07:26:11.650Z,76.50
2022-12-01T07:28:38.692Z,76.53
2022-12-01T07:31:11.048Z,76.46
2022-12-01T07:33:38.475Z,76.75
2022-12-01T07:36:06.389Z,76.29
2022-12-01T07:38:34.788Z,76.54
2022-12-01T07:41:08.447Z,76.95
2022-12-01T07:43:36.778Z,77.90
2022-12-01T07:46:09.197Z,76.69
2022-12-01T07:48:37.739Z,76.49
2022-12-01T07:51:18.379Z,76.87
2022-12-01T07:53:47.417Z,76.38
2022-12-01T07:56:14.561Z,75.70
2022-12-01T07:58:42.076Z,76.80
2022-12-01T08:01:20.393Z,76.62
2022-12-01T08:03:55.765Z,76.76
2022-12-01T08:06:24.130Z,76.96
2022-12-01T08:08:51.858Z,76.27
2022-12-01T08:11:25.178Z,74.25
2022-12-01T08:13:53.454Z,75.16
2022-12-01T08:16:22.811Z,75.08
2022-12-01T08:18:50.495Z,75.77
2022-12-01T08:21:21.132Z,76.18
2022-12-01T08:23:48.843Z,77.01
2022-12-01T08:26:18.546Z,76.51
2022-12-01T08:28:46.739Z,76.36
2022-12-01T08:31:20.193Z,75.79
2022-12-01T08:33:49.969Z,76.37
2022-12-01T08:36:18.436Z,75.33
2022-12-01T08:38:47.072Z,74.35
2022-12-01T08:41:15.103Z,74.38
2022-12-01T08:44:00.454Z,73.83
2022-12-01T08:46:32.289Z,74.43
2022-12-01T08:48:59.290Z,73.39
2022-12-01T08:51:26.945Z,73.37
2022-12-01T08:53:57.027Z,73.42
2022-12-01T08:56:37.943Z,73.56
2022-12-01T08:59:05.012Z,74.88
2022-12-01T09:01:32.989Z,75.26
2022-12-01T09:04:05.657Z,74.65
2022-12-01T09:06:39.671Z,76.36
2022-12-01T09:09:09.503Z,77.98
2022-12-01T09:11:36.344Z,77.04
2022-12-01T09:14:03.531Z,77.69
2022-12-01T09:16:30.752Z,78.39
2022-12-01T09:18:57.913Z,76.85
2022-12-01T09:21:28.396Z,76.80
2022-12-01T09:23:55.242Z,77.25
2022-12-01T09:26:23.053Z,77.51
2022-12-01T09:28:54.968Z,77.08
2022-12-01T09:31:23.460Z,77.43
2022-12-01T09:33:59.145Z,78.00
2022-12-01T09:36:26.378Z,76.89
2022-12-01T09:38:53.663Z,75.80
2022-12-01T09:41:45.294Z,77.30
2022-12-01T09:44:34.095Z,76.85
2022-12-01T09:47:13.350Z,76.30
2022-12-01T09:50:06.550Z,75.06
2022-12-01T09:52:47.698Z,72.81
2022-12-01T09:55:17.963Z,73.85
2022-12-01T09:57:49.168Z,72.32
2022-12-01T10:00:29.977Z,69.95
2022-12-01T10:03:32.928Z,72.02
2022-12-01T10:09:28.514Z,70.27
2022-12-01T10:12:05.797Z,69.04
2022-12-01T10:14:36.013Z,70.05
2022-12-01T10:17:24.331Z,69.63
2022-12-01T10:20:20.167Z,69.96
2022-12-01T10:23:20.426Z,69.99
2022-12-01T10:25:59.327Z,69.77
2022-12-01T10:28:51.497Z,68.72
2022-12-01T10:31:50.305Z,68.27
2022-12-01T10:34:37.771Z,68.92
2022-12-01T10:37:04.910Z,66.95
2022-12-01T10:39:41.917Z,68.85
2022-12-01T10:42:22.126Z,67.81
2022-12-01T10:44:50.622Z,68.03
2022-12-01T10:47:24.822Z,68.69
2022-12-01T10:49:52.781Z,69.17
2022-12-01T10:52:41.560Z,69.64
2022-12-01T10:55:29.297Z,68.08
2022-12-01T10:57:58.527Z,68.30
2022-12-01T11:03:23.532Z,69.09
2022-12-01T11:05:58.063Z,68.85
2022-12-01T11:08:37.088Z,68.78
2022-12-01T11:11:04.707Z,68.05
2022-12-01T11:13:35.488Z,68.20
2022-12-01T11:16:05.322Z,66.57
2022-12-01T11:18:38.533Z,68.47
2022-12-01T11:21:26.620Z,67.85
2022-12-01T11:23:55.940Z,67.92
2022-12-01T11:26:31.044Z,67.95
2022-12-01T11:29:37.882Z,67.68
2022-12-01T11:32:18.435Z,68.46
2022-12-01T11:35:20.116Z,68.20
2022-12-01T11:38:21.204Z,68.83
2022-12-01T11:40:48.716Z,68.87
2022-12-01T11:43:34.302Z,70.70
2022-12-01T11:46:08.077Z,69.84
2022-12-01T11:48:36.643Z,69.30
2022-12-01T11:51:31.871Z,68.95
2022-12-01T11:54:25.478Z,68.53
2022-12-01T11:59:41.144Z,69.51
2022-12-01T12:03:18.721Z,69.68
2022-12-01T12:06:31.927Z,70.42
2022-12-01T12:09:02.183Z,71.47
2022-12-01T12:12:02.105Z,70.87
2022-12-01T12:14:35.016Z,71.17
2022-12-01T12:17:15.100Z,71.25
2022-12-01T12:20:27.917Z,70.41
2022-12-01T12:23:27.101Z,70.90
2022-12-01T12:26:25.423Z,71.50
2022-12-01T12:29:22.934Z,72.25
2022-12-01T12:32:16.916Z,72.62
2022-12-01T12:35:02.970Z,71.49
2022-12-01T12:37:54.465Z,72.25
2022-12-01T12:40:42.319Z,71.46
2022-12-01T12:43:44.186Z,72.54
2022-12-01T12:46:16.803Z,70.81
2022-12-01T12:49:26.065Z,72.43
2022-12-01T12:52:08.938Z,72.43
2022-12-01T12:54:41.620Z,72.71
2022-12-01T12:57:31.677Z,72.12
2022-12-01T13:00:12.675Z,71.50
2022-12-01T13:03:06.110Z,72.44
2022-12-01T13:05:49.369Z,73.58
2022-12-01T13:08:40.489Z,72.41
2022-12-01T13:11:24.770Z,72.72
2022-12-01T13:14:02.831Z,73.33
2022-12-01T13:16:44.512Z,73.42
2022-12-01T13:19:35.638Z,72.77
2022-12-01T13:22:04.339Z,73.52
2022-12-01T13:24:31.538Z,73.83
2022-12-01T13:27:05.274Z,74.54
2022-12-01T13:29:43.910Z,74.78
2022-12-01T13:32:36.636Z,74.73
2022-12-01T13:35:29.590Z,74.75
2022-12-01T13:38:26.352Z,74.42
2022-12-01T13:41:33.354Z,74.53
2022-12-01T13:44:24.991Z,74.01
2022-12-01T13:46:59.712Z,73.95
2022-12-01T13:49:47.159Z,73.21
2022-12-01T13:52:23.616Z,74.81
2022-12-01T13:55:09.282Z,74.10
2022-12-01T13:57:49.309Z,75.05
2022-12-01T14:00:32.123Z,75.83
2022-12-01T14:03:19.597Z,75.64
2022-12-01T14:05:57.124Z,75.37
2022-12-01T14:08:37.813Z,75.01
2022-12-01T14:11:22.452Z,76.39
2022-12-01T14:14:00.834Z,77.19
2022-12-01T14:16:53.338Z,78.06
2022-12-01T14:19:44.856Z,79.80
2022-12-01T14:22:35.117Z,79.15
2022-12-01T14:25:25.781Z,79.63
2022-12-01T14:27:59.665Z,80.05
2022-12-01T14:30:41.990Z,81.33
2022-12-01T14:33:39.664Z,81.55
2022-12-01T14:36:21.855Z,80.96
2022-12-01T14:38:53.622Z,80.56
2022-12-01T14:41:45.816Z,81.76
2022-12-01T14:44:33.527Z,81.89
2022-12-01T14:47:11.283Z,81.42
2022-12-01T14:49:52.721Z,81.62
2022-12-01T14:52:28.572Z,82.38
2022-12-01T14:54:59.648Z,83.04
2022-12-01T14:57:36.763Z,83.63
2022-12-01T15:00:23.169Z,83.65
2022-12-01T15:03:16.577Z,83.82
2022-12-01T15:05:44.290Z,83.95
2022-12-01T15:11:26.005Z,84.06
2022-12-01T15:13:55.499Z,85.33
2022-12-01T15:16:30.866Z,84.80
2022-12-01T15:18:57.969Z,84.96
2022-12-01T15:21:31.457Z,84.80
2022-12-01T15:24:24.835Z,85.67
2022-12-01T15:27:03.444Z,85.81
2022-12-01T15:29:45.474Z,85.78
2022-12-01T15:32:16.632Z,85.86
2022-12-01T15:34:48.362Z,85.56
2022-12-01T15:37:25.106Z,86.05
2022-12-01T15:40:00.812Z,85.16
2022-12-01T15:42:39.501Z,85.90
2022-12-01T15:45:15.379Z,85.83
2022-12-01T15:47:45.093Z,86.71
2022-12-01T15:50:39.704Z,86.11
2022-12-01T15:53:33.371Z,85.83
2022-12-01T15:56:05.683Z,86.30
2022-12-01T15:58:43.243Z,86.22
2022-12-01T16:01:20.819Z,86.35
2022-12-01T16:03:59.218Z,86.28
2022-12-01T16:06:32.073Z,86.31
2022-12-01T16:09:07.128Z,84.91
2022-12-01T16:11:34.259Z,85.78
2022-12-01T16:14:08.104Z,85.63
2022-12-01T16:16:45.096Z,85.44
2022-12-01T16:19:11.900Z,85.50
2022-12-01T16:21:52.303Z,85.29
2022-12-01T16:24:53.577Z,85.66
2022-12-01T16:27:29.677Z,85.85
2022-12-01T16:30:02.926Z,85.99
2022-12-01T16:32:39.538Z,84.43
2022-12-01T16:35:30.371Z,84.88
2022-12-01T16:37:58.552Z,84.41
2022-12-01T16:40:25.712Z,85.04
2022-12-01T16:42:52.621Z,84.89
2022-12-01T16:45:20.600Z,84.34
2022-12-01T16:47:49.387Z,85.45
2022-12-01T16:50:19.384Z,84.26
2022-12-01T16:52:46.605Z,83.87
2022-12-01T16:55:42.509Z,84.02
2022-12-01T16:58:09.433Z,84.16
2022-12-01T17:00:36.553Z,84.12
2022-12-01T17:03:04.427Z,84.12
2022-12-01T17:05:32.402Z,84.74
2022-12-01T17:07:59.351Z,84.60
2022-12-01T17:10:26.233Z,84.63
2022-12-01T17:12:53.169Z,85.05
2022-12-01T17:15:20.151Z,84.20
2022-12-01T17:17:47.133Z,84.75
2022-12-01T17:20:14.450Z,85.10
2022-12-01T17:22:41.494Z,85.71
2022-12-01T17:25:09.747Z,85.65
2022-12-01T17:27:38.577Z,84.51
2022-12-01T17:30:07.795Z,84.94
2022-12-01T17:32:34.723Z,84.14
2022-12-01T17:35:01.646Z,84.46
2022-12-01T17:37:28.818Z,85.49
2022-12-01T17:39:55.770Z,84.52
2022-12-01T17:42:22.690Z,85.78
2022-12-01T17:44:49.834Z,85.16
2022-12-01T17:47:16.979Z,84.93
2022-12-01T17:49:43.952Z,86.22
2022-12-01T17:52:10.976Z,84.88
2022-12-01T17:54:38.288Z,85.07
2022-12-01T17:57:07.283Z,84.95
2022-12-01T17:59:36.752Z,85.04
2022-12-01T18:02:04.711Z,85.14
2022-12-01T18:04:31.841Z,85.76
2022-12-01T18:06:59.262Z,85.19
2022-12-01T18:09:26.478Z,85.19
2022-12-01T18:11:56.343Z,84.95
2022-12-01T18:14:25.050Z,86.35
2022-12-01T18:16:52.780Z,86.35
2022-12-01T18:19:20.557Z,86.13
2022-12-01T18:21:47.610Z,85.89
2022-12-01T18:24:14.545Z,84.91
2022-12-01T18:26:41.500Z,86.01
2022-12-01T18:29:15.975Z,85.61
2022-12-01T18:31:43.545Z,84.84
2022-12-01T18:34:11.757Z,84.80
2022-12-01T18:36:40.752Z,84.98
2022-12-01T18:39:09.421Z,85.64
2022-12-01T18:41:37.138Z,85.34
2022-12-01T18:44:04.484Z,85.61
2022-12-01T18:46:32.097Z,85.56
2022-12-01T18:49:02.948Z,86.00
2022-12-01T18:51:32.880Z,85.36
2022-12-01T18:54:02.322Z,86.19
2022-12-01T18:56:30.265Z,87.00
2022-12-01T18:59:00.872Z,85.92
2022-12-01T19:01:34.267Z,86.03
2022-12-01T19:04:01.850Z,85.87
2022-12-01T19:06:29.822Z,86.32
2022-12-01T19:09:00.170Z,86.25
2022-12-01T19:11:27.861Z,86.07
2022-12-01T19:13:56.692Z,86.85
2022-12-01T19:16:24.386Z,85.91
2022-12-01T19:18:51.536Z,86.18
2022-12-01T19:21:20.029Z,86.94
2022-12-01T19:23:47.852Z,86.39
2022-12-01T19:26:20.508Z,85.83
2022-12-01T19:28:47.880Z,86.35
2022-12-01T19:31:20.157Z,86.22
2022-12-01T19:33:47.329Z,85.70
2022-12-01T19:36:24.455Z,86.09
2022-12-01T19:38:53.314Z,85.80
2022-12-01T19:41:20.814Z,86.05
2022-12-01T19:43:48.084Z,85.74
2022-12-01T19:46:19.078Z,86.20
2022-12-01T19:48:47.488Z,86.19
2022-12-01T19:51:28.417Z,86.16
2022-12-01T19:53:55.699Z,85.53
2022-12-01T19:56:23.574Z,85.28
2022-12-01T19:58:50.798Z,85.66
2022-12-01T20:01:18.918Z,85.33
2022-12-01T20:03:49.077Z,86.08
2022-12-01T20:06:20.624Z,85.65
2022-12-01T20:08:48.060Z,85.47
2022-12-01T20:11:15.600Z,85.77
2022-12-01T20:13:44.450Z,85.83
2022-12-01T20:16:18.692Z,85.88
2022-12-01T20:18:46.442Z,85.90
2022-12-01T20:21:25.528Z,86.69
2022-12-01T20:24:20.160Z,85.92
2022-12-01T20:26:51.853Z,86.00
2022-12-01T20:29:26.359Z,86.54
2022-12-01T20:31:55.686Z,86.85
2022-12-01T20:34:33.531Z,88.21
2022-12-01T20:37:00.598Z,87.76
2022-12-01T20:39:28.500Z,88.05
2022-12-01T20:41:55.395Z,87.13
2022-12-01T20:44:22.292Z,87.36
2022-12-01T20:46:49.200Z,88.31
2022-12-01T20:49:17.522Z,87.18
2022-12-01T20:51:45.093Z,87.31
2022-12-01T20:54:30.578Z,88.19
2022-12-01T20:56:58.402Z,87.75
2022-12-01T20:59:25.290Z,87.48
2022-12-01T21:01:52.204Z,89.35
2022-12-01T21:04:19.121Z,88.48
2022-12-01T21:06:46.281Z,88.12
2022-12-01T21:09:14.898Z,88.88
2022-12-01T21:12:07.981Z,88.72
2022-12-01T21:14:54.564Z,87.93
2022-12-01T21:17:39.578Z,89.06
2022-12-01T21:20:31.332Z,88.17
2022-12-01T21:23:16.981Z,88.05
2022-12-01T21:25:44.436Z,87.62
2022-12-01T21:28:24.095Z,88.21
2022-12-01T21:31:10.563Z,88.11
2022-12-01T21:33:39.073Z,88.40
2022-12-01T21:36:22.241Z,88.09
2022-12-01T21:38:55.772Z,88.76
2022-12-01T21:41:28.043Z,89.04
2022-12-01T21:44:01.400Z,89.51
2022-12-01T21:46:28.643Z,89.59
2022-12-01T21:48:55.732Z,89.68
2022-12-01T21:51:24.413Z,89.14
2022-12-01T21:53:53.298Z,89.30
2022-12-01T21:56:28.861Z,89.12
2022-12-01T21:59:34.378Z,88.63
2022-12-01T22:02:51.520Z,88.96
2022-12-01T22:05:27.951Z,89.20
2022-12-01T22:08:38.573Z,88.68
2022-12-01T22:11:18.663Z,89.03
2022-12-01T22:13:53.679Z,89.15
2022-12-01T22:16:31.698Z,89.00
2022-12-01T22:19:17.198Z,88.31
2022-12-01T22:21:57.996Z,88.33
2022-12-01T22:24:32.109Z,89.82
2022-12-01T22:27:39.655Z,89.50
2022-12-01T22:30:06.455Z,89.02
2022-12-01T22:32:54.152Z,89.74
2022-12-01T22:35:28.493Z,90.71
2022-12-01T22:38:21.406Z,89.82
2022-12-01T22:40:48.176Z,90.32
2022-12-01T22:43:17.812Z,90.18
2022-12-01T22:45:52.994Z,89.48
2022-12-01T22:48:40.049Z,89.89
2022-12-01T22:51:35.495Z,90.41
2022-12-01T22:54:20.451Z,89.76
2022-12-01T22:56:51.168Z,90.24
2022-12-01T22:59:23.184Z,90.00
2022-12-01T23:01:59.120Z,90.12
2022-12-01T23:04:28.080Z,90.26
2022-12-01T23:06:59.669Z,90.01
2022-12-01T23:09:41.557Z,91.01
2022-12-01T23:12:11.251Z,91.09
2022-12-01T23:14:51.044Z,90.22
2022-12-01T23:17:29.622Z,90.60
2022-12-01T23:20:11.143Z,91.62
2022-12-01T23:22:38.738Z,92.09
2022-12-01T23:25:20.256Z,92.05
2022-12-01T23:27:50.563Z,92.48
2022-12-01T23:30:21.037Z,92.11
2022-12-01T23:33:14.615Z,92.49
2022-12-01T23:36:06.977Z,92.39
2022-12-01T23:38:39.326Z,92.76
2022-12-01T23:41:44.955Z,93.01
2022-12-01T23:44:24.216Z,92.67
2022-12-01T23:46:53.852Z,92.50
2022-12-01T23:49:48.575Z,93.11
2022-12-01T23:52:21.172Z,92.46
2022-12-01T23:54:48.640Z,92.58
2022-12-01T23:57:24.802Z,92.01
